モスクワ/シェレメーチエヴォ の空港の天気 - METARとTAF

シェレメーチエヴォ国際空港(モスクワ) ( UUEE / SVO ) - ロシア モスクワ
飛行場実況気象(Metar)
観測時間06/03 09:00 MSK (06/03 06:00 UTC)
風向・風速東北東 4m/s
視程9000m
天気現象弱いしゅう雨
全天の4割程度の雲 雲底高度 150m
全天の8割程度の雲 雲底高度 1190m
気温10℃
湿度100%
気圧1011hPa
METARUUEE 030600Z 07004MPS 040V100 9000 -SHRA SCT005 BKN039CB 10/10 Q1011 R06R/290051 NOSIG
過去の天気等 Google飛行場航空写真 Wunderground天気予報

過去48時間のMETAR

飛行場予報(TAF)
発表時間: 6/03 07:52 MSK (6/03 04:52 UTC)
予報対象時間: 3日9時 MSK ~ 4日9時 MSK
風向・風速東北東 7m/s 瞬間風速 12m/s
視程6000m
天気現象弱い雨
全天の8割程度の雲 雲底高度 210m
3日9時 MSK ~ 3日15時 MSK に一時的に
視程1500m
天気現象しゅう雨
全天の8割程度の雲 雲底高度 90m
全天の8割程度の積乱雲 雲底高度 370m
3日15時 MSK ~ 4日3時 MSK に一時的に
風向・風速東南東 10m/s 瞬間風速 16m/s
視程1200m
天気現象雷雨
全天の8割程度の積乱雲 雲底高度 370m
TAF UUEE 030452Z 0306/0406 06007G12MPS 6000 -RA BKN007 TX15/0312Z TN11/0306Z
TEMPO 0306/0312 1500 SHRA BKN003 BKN012CB
TEMPO 0312/0324 12010G16MPS 1200 TSRA BKN012CB